KEAT/EAT METAR and TAF weather

Enter ICAO airport designator
Station Type Date Time Source
KEAT METAR 2019/10/18 10:55 UTC NOAA

KEAT 181055Z AUTO 31011KT 10SM CLR 07/01 A2969 RMK AO2 SLP054 T00720011


Station Type Date Time Source
KEAT Decoded METAR 2019/10/18 10:55 UTC NOAA

WENATCHEE PANGBORN MEMO, WA, United States (KEAT) 47-24N 120-12W 377M
Oct 18, 2019 - 06:55 AM EDT / 2019.10.18 1055 UTC
Wind: from the NW (310 degrees) at 13 MPH (11 KT):0
Visibility: 10 mile(s):0
Sky conditions: clear
Temperature: 45.0 F (7.2 C)
Dew Point: 34.0 F (1.1 C)
Relative Humidity: 65%
Pressure (altimeter): 29.69 in. Hg (1005 hPa)
ob: KEAT 181055Z AUTO 31011KT 10SM CLR 07/01 A2969 RMK AO2 SLP054 T00720011
cycle: 11

Station Type Date Time Source
KEAT TAF 2019/10/18 06:34 UTC NOAA

TAF KEAT 180531Z 1806/1906 27007KT P6SM -RA BKN050 OVC070
FM180700 30012KT P6SM SCT070
FM181200 29011KT P6SM SKC
FM182100 27010KT P6SM VCSH SCT060 BKN120
FM190100 28008KT P6SM -RA BKN050 OVC070

Example: see airport list